sensor_id;sensor_type;location;lat;lon;timestamp;pressure;altitude;pressure_sealevel;temperature;humidity
40946;BME280;55635;50.264;11.918;2023-06-14T00:02:09;95421.03;;;15.55;58.55
40946;BME280;55635;50.264;11.918;2023-06-14T00:04:50;95421.69;;;15.51;58.55
40946;BME280;55635;50.264;11.918;2023-06-14T00:07:38;95432.75;;;15.54;58.38
40946;BME280;55635;50.264;11.918;2023-06-14T00:10:22;95424.66;;;15.61;58.70
40946;BME280;55635;50.264;11.918;2023-06-14T00:13:03;95413.28;;;15.47;58.91
40946;BME280;55635;50.264;11.918;2023-06-14T00:15:45;95428.03;;;15.56;58.17
40946;BME280;55635;50.264;11.918;2023-06-14T00:18:27;95424.72;;;15.54;58.42
40946;BME280;55635;50.264;11.918;2023-06-14T00:21:10;95418.63;;;15.47;58.32
40946;BME280;55635;50.264;11.918;2023-06-14T00:23:51;95425.41;;;15.50;57.96
40946;BME280;55635;50.264;11.918;2023-06-14T00:26:31;95418.63;;;15.47;58.65
40946;BME280;55635;50.264;11.918;2023-06-14T00:29:12;95415.16;;;15.22;59.34
40946;BME280;55635;50.264;11.918;2023-06-14T00:31:53;95429.38;;;15.16;59.46
40946;BME280;55635;50.264;11.918;2023-06-14T00:34:34;95416.28;;;15.08;60.14
40946;BME280;55635;50.264;11.918;2023-06-14T00:37:15;95419.88;;;15.20;59.43
40946;BME280;55635;50.264;11.918;2023-06-14T00:39:57;95412.47;;;15.22;59.02
40946;BME280;55635;50.264;11.918;2023-06-14T00:42:38;95423.22;;;15.15;60.46
40946;BME280;55635;50.264;11.918;2023-06-14T00:45:19;95428.59;;;15.09;60.40
40946;BME280;55635;50.264;11.918;2023-06-14T00:48:02;95423.69;;;15.06;60.60
40946;BME280;55635;50.264;11.918;2023-06-14T00:50:45;95412.66;;;14.96;60.85
40946;BME280;55635;50.264;11.918;2023-06-14T00:53:31;95409.41;;;14.94;60.05
40946;BME280;55635;50.264;11.918;2023-06-14T00:56:14;95411.66;;;14.97;59.86
40946;BME280;55635;50.264;11.918;2023-06-14T00:58:56;95408.59;;;14.93;59.49
40946;BME280;55635;50.264;11.918;2023-06-14T01:01:38;95414.59;;;14.89;60.54
40946;BME280;55635;50.264;11.918;2023-06-14T01:04:23;95414.22;;;14.85;61.05
40946;BME280;55635;50.264;11.918;2023-06-14T01:11:13;95417.97;;;14.71;62.99
40946;BME280;55635;50.264;11.918;2023-06-14T01:14:00;95424.50;;;14.44;63.20
40946;BME280;55635;50.264;11.918;2023-06-14T01:16:43;95423.75;;;14.37;62.93
40946;BME280;55635;50.264;11.918;2023-06-14T01:19:25;95431.50;;;14.45;62.57
40946;BME280;55635;50.264;11.918;2023-06-14T01:22:08;95411.44;;;14.36;62.31
40946;BME280;55635;50.264;11.918;2023-06-14T01:24:49;95427.22;;;14.31;63.81
40946;BME280;55635;50.264;11.918;2023-06-14T01:27:35;95423.50;;;14.32;62.96
40946;BME280;55635;50.264;11.918;2023-06-14T01:30:17;95419.00;;;14.32;62.08
40946;BME280;55635;50.264;11.918;2023-06-14T01:32:59;95416.16;;;14.27;62.93
40946;BME280;55635;50.264;11.918;2023-06-14T01:35:46;95421.09;;;14.24;63.76
40946;BME280;55635;50.264;11.918;2023-06-14T01:38:27;95414.56;;;14.13;63.95
40946;BME280;55635;50.264;11.918;2023-06-14T01:41:10;95415.19;;;14.15;63.50
40946;BME280;55635;50.264;11.918;2023-06-14T01:43:51;95419.28;;;14.17;64.32
40946;BME280;55635;50.264;11.918;2023-06-14T01:46:33;95408.22;;;14.14;63.54
40946;BME280;55635;50.264;11.918;2023-06-14T01:49:14;95414.81;;;14.05;64.78
40946;BME280;55635;50.264;11.918;2023-06-14T01:51:55;95418.75;;;13.96;64.55
40946;BME280;55635;50.264;11.918;2023-06-14T01:54:36;95423.69;;;13.86;64.88
40946;BME280;55635;50.264;11.918;2023-06-14T01:57:24;95424.34;;;13.81;64.86
40946;BME280;55635;50.264;11.918;2023-06-14T02:00:06;95428.28;;;13.72;65.41
40946;BME280;55635;50.264;11.918;2023-06-14T02:02:53;95429.50;;;13.70;63.91
40946;BME280;55635;50.264;11.918;2023-06-14T02:05:34;95424.63;;;13.53;64.92
40946;BME280;55635;50.264;11.918;2023-06-14T02:08:15;95428.31;;;13.46;66.07
40946;BME280;55635;50.264;11.918;2023-06-14T02:10:56;95426.28;;;13.41;66.73
40946;BME280;55635;50.264;11.918;2023-06-14T02:13:37;95429.34;;;13.51;66.24
40946;BME280;55635;50.264;11.918;2023-06-14T02:16:18;95431.13;;;13.64;66.94
40946;BME280;55635;50.264;11.918;2023-06-14T02:18:59;95431.94;;;13.71;66.09
40946;BME280;55635;50.264;11.918;2023-06-14T02:21:40;95422.53;;;13.62;66.49
40946;BME280;55635;50.264;11.918;2023-06-14T02:24:20;95426.91;;;13.17;65.82
40946;BME280;55635;50.264;11.918;2023-06-14T02:27:03;95431.94;;;12.53;67.13
40946;BME280;55635;50.264;11.918;2023-06-14T02:29:44;95438.50;;;12.64;67.47
40946;BME280;55635;50.264;11.918;2023-06-14T02:32:25;95438.09;;;12.60;67.97
40946;BME280;55635;50.264;11.918;2023-06-14T02:35:08;95441.41;;;12.69;67.79
40946;BME280;55635;50.264;11.918;2023-06-14T02:37:49;95432.19;;;12.71;67.52
40946;BME280;55635;50.264;11.918;2023-06-14T02:40:31;95438.13;;;12.80;67.68
40946;BME280;55635;50.264;11.918;2023-06-14T02:43:12;95434.44;;;12.87;67.55
40946;BME280;55635;50.264;11.918;2023-06-14T02:45:53;95440.59;;;13.01;66.83
40946;BME280;55635;50.264;11.918;2023-06-14T02:48:35;95433.22;;;13.03;67.82
40946;BME280;55635;50.264;11.918;2023-06-14T02:51:16;95436.50;;;13.05;68.28
40946;BME280;55635;50.264;11.918;2023-06-14T02:53:57;95440.19;;;12.78;67.59
40946;BME280;55635;50.264;11.918;2023-06-14T02:56:38;95445.50;;;12.91;66.66
40946;BME280;55635;50.264;11.918;2023-06-14T02:59:22;95440.56;;;12.81;67.00
40946;BME280;55635;50.264;11.918;2023-06-14T03:02:07;95453.28;;;12.92;66.98
40946;BME280;55635;50.264;11.918;2023-06-14T03:04:49;95449.81;;;12.92;67.93
40946;BME280;55635;50.264;11.918;2023-06-14T03:07:32;95456.16;;;12.97;67.95
40946;BME280;55635;50.264;11.918;2023-06-14T03:10:14;95455.13;;;12.98;68.05
40946;BME280;55635;50.264;11.918;2023-06-14T03:12:56;95441.41;;;12.82;65.29
40946;BME280;55635;50.264;11.918;2023-06-14T03:15:37;95460.84;;;12.89;64.50
40946;BME280;55635;50.264;11.918;2023-06-14T03:18:19;95450.63;;;12.86;65.05
40946;BME280;55635;50.264;11.918;2023-06-14T03:21:05;95454.09;;;12.86;66.48
40946;BME280;55635;50.264;11.918;2023-06-14T03:23:50;95460.84;;;12.89;67.46
40946;BME280;55635;50.264;11.918;2023-06-14T03:26:32;95461.88;;;12.94;67.77
40946;BME280;55635;50.264;11.918;2023-06-14T03:29:15;95470.88;;;13.00;67.57
40946;BME280;55635;50.264;11.918;2023-06-14T03:32:02;95468.03;;;12.95;68.24
40946;BME280;55635;50.264;11.918;2023-06-14T03:34:53;95472.94;;;13.04;68.11
40946;BME280;55635;50.264;11.918;2023-06-14T03:37:37;95464.97;;;13.04;66.09
40946;BME280;55635;50.264;11.918;2023-06-14T03:40:19;95467.63;;;12.98;65.33
40946;BME280;55635;50.264;11.918;2023-06-14T03:43:07;95463.31;;;13.03;66.08
40946;BME280;55635;50.264;11.918;2023-06-14T03:45:48;95475.81;;;13.03;67.36
40946;BME280;55635;50.264;11.918;2023-06-14T03:48:29;95478.06;;;13.06;67.40
40946;BME280;55635;50.264;11.918;2023-06-14T03:51:10;95470.69;;;13.01;67.69
40946;BME280;55635;50.264;11.918;2023-06-14T03:53:52;95479.34;;;13.10;67.36
40946;BME280;55635;50.264;11.918;2023-06-14T03:56:34;95487.91;;;13.12;67.13
40946;BME280;55635;50.264;11.918;2023-06-14T03:59:17;95487.69;;;13.07;67.93
40946;BME280;55635;50.264;11.918;2023-06-14T04:01:57;95489.09;;;13.03;68.43
40946;BME280;55635;50.264;11.918;2023-06-14T04:04:39;95495.47;;;13.02;68.95
40946;BME280;55635;50.264;11.918;2023-06-14T04:07:20;95505.28;;;13.01;69.20
40946;BME280;55635;50.264;11.918;2023-06-14T04:10:01;95514.34;;;13.14;69.56
40946;BME280;55635;50.264;11.918;2023-06-14T04:12:42;95503.31;;;13.23;68.29
40946;BME280;55635;50.264;11.918;2023-06-14T04:15:23;95504.75;;;13.32;68.18
40946;BME280;55635;50.264;11.918;2023-06-14T04:18:08;95503.50;;;13.35;68.71
40946;BME280;55635;50.264;11.918;2023-06-14T04:20:49;95506.19;;;13.41;68.90
40946;BME280;55635;50.264;11.918;2023-06-14T04:23:30;95507.41;;;13.45;68.98
40946;BME280;55635;50.264;11.918;2023-06-14T04:26:15;95505.34;;;13.47;68.92
40946;BME280;55635;50.264;11.918;2023-06-14T04:28:57;95495.53;;;13.48;69.43
40946;BME280;55635;50.264;11.918;2023-06-14T04:31:43;95519.69;;;13.59;69.45
40946;BME280;55635;50.264;11.918;2023-06-14T04:34:26;95521.34;;;13.47;69.38
40946;BME280;55635;50.264;11.918;2023-06-14T04:37:11;95524.59;;;13.43;69.59
40946;BME280;55635;50.264;11.918;2023-06-14T04:39:56;95520.28;;;13.55;69.25
40946;BME280;55635;50.264;11.918;2023-06-14T04:42:38;95523.19;;;13.47;69.81
40946;BME280;55635;50.264;11.918;2023-06-14T04:45:22;95520.69;;;13.52;69.43
40946;BME280;55635;50.264;11.918;2023-06-14T04:48:04;95518.44;;;13.55;69.61
40946;BME280;55635;50.264;11.918;2023-06-14T04:50:47;95531.78;;;13.55;69.96
40946;BME280;55635;50.264;11.918;2023-06-14T04:53:28;95526.66;;;13.60;69.90
40946;BME280;55635;50.264;11.918;2023-06-14T04:56:10;95527.69;;;13.73;69.28
40946;BME280;55635;50.264;11.918;2023-06-14T04:58:52;95524.97;;;13.79;69.20
40946;BME280;55635;50.264;11.918;2023-06-14T05:01:34;95529.47;;;13.85;68.67
40946;BME280;55635;50.264;11.918;2023-06-14T05:04:16;95536.66;;;13.98;68.45
40946;BME280;55635;50.264;11.918;2023-06-14T05:06:57;95536.47;;;13.93;68.68
40946;BME280;55635;50.264;11.918;2023-06-14T05:09:38;95526.56;;;14.13;68.13
40946;BME280;55635;50.264;11.918;2023-06-14T05:12:20;95533.97;;;14.11;68.32
40946;BME280;55635;50.264;11.918;2023-06-14T05:15:01;95521.44;;;14.18;68.11
40946;BME280;55635;50.264;11.918;2023-06-14T05:17:42;95528.44;;;14.12;68.24
40946;BME280;55635;50.264;11.918;2023-06-14T05:20:24;95528.63;;;14.17;68.25
40946;BME280;55635;50.264;11.918;2023-06-14T05:23:05;95523.28;;;14.17;68.29
40946;BME280;55635;50.264;11.918;2023-06-14T05:25:46;95517.31;;;14.22;68.19
40946;BME280;55635;50.264;11.918;2023-06-14T05:28:27;95523.69;;;14.21;68.70
40946;BME280;55635;50.264;11.918;2023-06-14T05:31:08;95530.22;;;14.25;68.49
40946;BME280;55635;50.264;11.918;2023-06-14T05:33:50;95517.91;;;14.31;67.70
40946;BME280;55635;50.264;11.918;2023-06-14T05:36:31;95539.03;;;14.45;67.56
40946;BME280;55635;50.264;11.918;2023-06-14T05:39:11;95537.34;;;14.51;67.61
40946;BME280;55635;50.264;11.918;2023-06-14T05:41:52;95543.66;;;14.69;67.08
40946;BME280;55635;50.264;11.918;2023-06-14T05:44:33;95543.19;;;14.79;66.73
40946;BME280;55635;50.264;11.918;2023-06-14T05:47:14;95542.78;;;14.76;66.81
40946;BME280;55635;50.264;11.918;2023-06-14T05:49:55;95544.56;;;14.95;66.57
40946;BME280;55635;50.264;11.918;2023-06-14T05:52:36;95547.38;;;15.00;66.09
40946;BME280;55635;50.264;11.918;2023-06-14T05:55:17;95555.63;;;15.30;65.98
40946;BME280;55635;50.264;11.918;2023-06-14T05:57:58;95543.69;;;15.32;65.91
40946;BME280;55635;50.264;11.918;2023-06-14T06:00:39;95542.06;;;15.62;65.14
40946;BME280;55635;50.264;11.918;2023-06-14T06:03:20;95552.44;;;15.77;64.69
40946;BME280;55635;50.264;11.918;2023-06-14T06:06:01;95543.53;;;15.83;64.26
40946;BME280;55635;50.264;11.918;2023-06-14T06:08:43;95551.06;;;15.93;64.14
40946;BME280;55635;50.264;11.918;2023-06-14T06:11:24;95537.47;;;16.12;64.30
40946;BME280;55635;50.264;11.918;2023-06-14T06:14:05;95535.13;;;16.77;62.72
40946;BME280;55635;50.264;11.918;2023-06-14T06:16:46;95528.72;;;17.79;59.59
40946;BME280;55635;50.264;11.918;2023-06-14T06:19:27;95523.59;;;18.87;55.84
40946;BME280;55635;50.264;11.918;2023-06-14T06:22:08;95516.63;;;19.92;53.38
40946;BME280;55635;50.264;11.918;2023-06-14T06:24:49;95508.41;;;20.54;49.70
40946;BME280;55635;50.264;11.918;2023-06-14T06:27:31;95493.47;;;21.11;48.78
40946;BME280;55635;50.264;11.918;2023-06-14T06:30:12;95517.78;;;21.70;47.50
40946;BME280;55635;50.264;11.918;2023-06-14T06:32:53;95500.50;;;22.40;44.90
40946;BME280;55635;50.264;11.918;2023-06-14T06:35:36;95507.06;;;23.11;44.12
40946;BME280;55635;50.264;11.918;2023-06-14T06:38:17;95493.66;;;23.87;42.65
40946;BME280;55635;50.264;11.918;2023-06-14T06:40:59;95506.41;;;24.21;41.45
40946;BME280;55635;50.264;11.918;2023-06-14T06:43:40;95505.00;;;24.44;40.84
40946;BME280;55635;50.264;11.918;2023-06-14T06:46:23;95497.84;;;24.78;40.20
40946;BME280;55635;50.264;11.918;2023-06-14T06:49:04;95499.00;;;25.26;38.86
40946;BME280;55635;50.264;11.918;2023-06-14T06:52:06;95495.69;;;25.39;37.82
40946;BME280;55635;50.264;11.918;2023-06-14T06:54:47;95498.28;;;25.60;37.82
40946;BME280;55635;50.264;11.918;2023-06-14T06:57:29;95508.13;;;25.51;37.35
40946;BME280;55635;50.264;11.918;2023-06-14T07:00:11;95503.34;;;26.10;36.01
40946;BME280;55635;50.264;11.918;2023-06-14T07:02:53;95507.03;;;26.53;35.37
40946;BME280;55635;50.264;11.918;2023-06-14T07:05:35;95498.63;;;26.78;35.22
40946;BME280;55635;50.264;11.918;2023-06-14T07:08:16;95505.75;;;26.45;35.24
40946;BME280;55635;50.264;11.918;2023-06-14T07:10:57;95516.88;;;27.01;34.15
40946;BME280;55635;50.264;11.918;2023-06-14T07:13:38;95512.56;;;27.19;33.97
40946;BME280;55635;50.264;11.918;2023-06-14T07:16:19;95504.91;;;27.64;33.45
40946;BME280;55635;50.264;11.918;2023-06-14T07:19:00;95501.06;;;27.22;34.43
40946;BME280;55635;50.264;11.918;2023-06-14T07:21:41;95500.72;;;27.29;35.36
40946;BME280;55635;50.264;11.918;2023-06-14T07:24:22;95515.88;;;27.35;33.71
40946;BME280;55635;50.264;11.918;2023-06-14T07:27:03;95501.41;;;27.77;32.84
40946;BME280;55635;50.264;11.918;2023-06-14T07:29:44;95518.44;;;28.38;32.88
40946;BME280;55635;50.264;11.918;2023-06-14T07:32:25;95518.63;;;28.28;32.76
40946;BME280;55635;50.264;11.918;2023-06-14T07:35:07;95524.47;;;27.84;32.15
40946;BME280;55635;50.264;11.918;2023-06-14T07:37:48;95520.13;;;26.22;33.65
40946;BME280;55635;50.264;11.918;2023-06-14T07:40:30;95508.13;;;26.52;34.08
40946;BME280;55635;50.264;11.918;2023-06-14T07:43:11;95520.22;;;27.60;33.56
40946;BME280;55635;50.264;11.918;2023-06-14T07:45:52;95522.13;;;27.59;32.83
40946;BME280;55635;50.264;11.918;2023-06-14T07:48:33;95516.06;;;27.99;32.67
40946;BME280;55635;50.264;11.918;2023-06-14T07:51:14;95519.84;;;27.47;33.27
40946;BME280;55635;50.264;11.918;2023-06-14T07:53:54;95515.25;;;27.99;33.35
40946;BME280;55635;50.264;11.918;2023-06-14T07:56:35;95519.13;;;27.61;33.31
40946;BME280;55635;50.264;11.918;2023-06-14T07:59:17;95524.19;;;27.67;34.19
40946;BME280;55635;50.264;11.918;2023-06-14T08:01:58;95522.06;;;27.40;34.25
40946;BME280;55635;50.264;11.918;2023-06-14T08:04:39;95525.19;;;27.90;33.73
40946;BME280;55635;50.264;11.918;2023-06-14T08:07:20;95529.19;;;27.60;33.10
40946;BME280;55635;50.264;11.918;2023-06-14T08:10:01;95517.38;;;27.27;33.36
40946;BME280;55635;50.264;11.918;2023-06-14T08:12:45;95521.63;;;27.76;33.46
40946;BME280;55635;50.264;11.918;2023-06-14T08:15:26;95520.56;;;27.72;33.23
40946;BME280;55635;50.264;11.918;2023-06-14T08:18:07;95521.09;;;27.74;33.99
40946;BME280;55635;50.264;11.918;2023-06-14T08:20:48;95510.56;;;27.48;33.93
40946;BME280;55635;50.264;11.918;2023-06-14T08:23:29;95519.44;;;27.35;34.39
40946;BME280;55635;50.264;11.918;2023-06-14T08:26:10;95520.16;;;27.41;33.74
40946;BME280;55635;50.264;11.918;2023-06-14T08:28:51;95519.47;;;27.73;34.24
40946;BME280;55635;50.264;11.918;2023-06-14T08:31:33;95527.34;;;27.55;33.13
40946;BME280;55635;50.264;11.918;2023-06-14T08:34:14;95525.06;;;28.00;33.34
40946;BME280;55635;50.264;11.918;2023-06-14T08:36:55;95517.38;;;28.02;33.37
40946;BME280;55635;50.264;11.918;2023-06-14T08:39:36;95524.25;;;27.81;33.42
40946;BME280;55635;50.264;11.918;2023-06-14T08:42:18;95531.41;;;28.46;33.14
40946;BME280;55635;50.264;11.918;2023-06-14T08:44:59;95526.25;;;28.13;32.76
40946;BME280;55635;50.264;11.918;2023-06-14T08:47:40;95529.63;;;27.86;33.58
40946;BME280;55635;50.264;11.918;2023-06-14T08:50:22;95536.78;;;28.19;32.27
40946;BME280;55635;50.264;11.918;2023-06-14T08:53:04;95533.72;;;28.07;32.88
40946;BME280;55635;50.264;11.918;2023-06-14T08:55:47;95532.00;;;28.43;32.85
40946;BME280;55635;50.264;11.918;2023-06-14T08:58:28;95530.28;;;28.47;31.92
40946;BME280;55635;50.264;11.918;2023-06-14T09:01:14;95526.63;;;28.06;32.72
40946;BME280;55635;50.264;11.918;2023-06-14T09:03:57;95530.97;;;27.88;32.80
40946;BME280;55635;50.264;11.918;2023-06-14T09:06:38;95532.41;;;28.18;32.71
40946;BME280;55635;50.264;11.918;2023-06-14T09:09:21;95528.78;;;28.23;32.73
40946;BME280;55635;50.264;11.918;2023-06-14T09:12:03;95529.50;;;28.60;32.22
40946;BME280;55635;50.264;11.918;2023-06-14T09:14:46;95541.34;;;28.05;33.56
40946;BME280;55635;50.264;11.918;2023-06-14T09:17:27;95534.91;;;27.16;33.15
40946;BME280;55635;50.264;11.918;2023-06-14T09:20:09;95534.69;;;27.92;32.75
40946;BME280;55635;50.264;11.918;2023-06-14T09:22:51;95537.38;;;28.16;32.50
40946;BME280;55635;50.264;11.918;2023-06-14T09:25:51;95532.72;;;28.95;33.47
40946;BME280;55635;50.264;11.918;2023-06-14T09:28:32;95544.69;;;29.26;32.04
40946;BME280;55635;50.264;11.918;2023-06-14T09:31:22;95531.06;;;28.67;32.78
40946;BME280;55635;50.264;11.918;2023-06-14T09:34:03;95551.03;;;28.62;33.59
40946;BME280;55635;50.264;11.918;2023-06-14T09:36:44;95545.16;;;28.55;33.52
40946;BME280;55635;50.264;11.918;2023-06-14T09:39:25;95547.91;;;27.85;33.69
40946;BME280;55635;50.264;11.918;2023-06-14T09:42:17;95547.03;;;27.29;35.02
40946;BME280;55635;50.264;11.918;2023-06-14T09:45:03;95560.41;;;27.86;34.22
40946;BME280;55635;50.264;11.918;2023-06-14T09:47:44;95558.69;;;28.46;33.72
40946;BME280;55635;50.264;11.918;2023-06-14T09:50:26;95549.91;;;28.95;33.02
40946;BME280;55635;50.264;11.918;2023-06-14T09:53:10;95549.00;;;28.22;34.45
40946;BME280;55635;50.264;11.918;2023-06-14T09:55:52;95558.34;;;28.34;33.21
40946;BME280;55635;50.264;11.918;2023-06-14T09:58:37;95550.81;;;29.04;32.64
40946;BME280;55635;50.264;11.918;2023-06-14T10:01:20;95543.41;;;29.18;32.21
40946;BME280;55635;50.264;11.918;2023-06-14T10:04:05;95544.03;;;29.15;31.30
40946;BME280;55635;50.264;11.918;2023-06-14T10:06:46;95544.22;;;29.05;31.85
40946;BME280;55635;50.264;11.918;2023-06-14T10:09:28;95550.72;;;29.50;32.03
40946;BME280;55635;50.264;11.918;2023-06-14T10:12:10;95551.81;;;29.49;32.69
40946;BME280;55635;50.264;11.918;2023-06-14T10:14:52;95552.25;;;29.92;31.52
40946;BME280;55635;50.264;11.918;2023-06-14T10:17:52;95546.00;;;30.14;30.85
40946;BME280;55635;50.264;11.918;2023-06-14T10:21:04;95546.41;;;30.21;29.75
40946;BME280;55635;50.264;11.918;2023-06-14T10:23:50;95536.88;;;29.96;30.47
40946;BME280;55635;50.264;11.918;2023-06-14T10:26:32;95538.56;;;30.06;30.57
40946;BME280;55635;50.264;11.918;2023-06-14T10:29:13;95533.41;;;30.27;30.46
40946;BME280;55635;50.264;11.918;2023-06-14T10:31:59;95537.28;;;30.79;30.83
40946;BME280;55635;50.264;11.918;2023-06-14T10:34:40;95522.56;;;30.66;29.39
40946;BME280;55635;50.264;11.918;2023-06-14T10:37:22;95529.38;;;31.08;29.40
40946;BME280;55635;50.264;11.918;2023-06-14T10:40:03;95532.25;;;31.51;28.87
40946;BME280;55635;50.264;11.918;2023-06-14T10:42:51;95534.66;;;30.73;29.18
40946;BME280;55635;50.264;11.918;2023-06-14T10:45:33;95530.44;;;30.67;30.37
40946;BME280;55635;50.264;11.918;2023-06-14T10:48:29;95527.25;;;30.74;29.76
40946;BME280;55635;50.264;11.918;2023-06-14T10:51:20;95526.34;;;30.56;29.94
40946;BME280;55635;50.264;11.918;2023-06-14T10:54:01;95530.84;;;30.83;29.56
40946;BME280;55635;50.264;11.918;2023-06-14T10:56:51;95516.91;;;30.62;29.03
40946;BME280;55635;50.264;11.918;2023-06-14T10:59:32;95525.50;;;30.47;29.66
40946;BME280;55635;50.264;11.918;2023-06-14T11:05:04;95521.44;;;30.98;28.87
40946;BME280;55635;50.264;11.918;2023-06-14T11:10:47;95520.44;;;30.94;28.34
40946;BME280;55635;50.264;11.918;2023-06-14T11:13:28;95522.94;;;31.60;28.58
40946;BME280;55635;50.264;11.918;2023-06-14T11:16:14;95524.91;;;31.29;27.98
40946;BME280;55635;50.264;11.918;2023-06-14T11:18:56;95520.69;;;30.53;29.23
40946;BME280;55635;50.264;11.918;2023-06-14T11:21:40;95522.94;;;29.84;29.99
40946;BME280;55635;50.264;11.918;2023-06-14T11:24:21;95521.84;;;29.94;29.76
40946;BME280;55635;50.264;11.918;2023-06-14T11:27:02;95518.31;;;30.91;29.85
40946;BME280;55635;50.264;11.918;2023-06-14T11:29:48;95510.50;;;31.71;28.81
40946;BME280;55635;50.264;11.918;2023-06-14T11:32:31;95519.16;;;31.39;28.29
40946;BME280;55635;50.264;11.918;2023-06-14T11:35:12;95521.88;;;31.31;28.99
40946;BME280;55635;50.264;11.918;2023-06-14T11:37:55;95524.38;;;31.66;27.64
40946;BME280;55635;50.264;11.918;2023-06-14T11:40:38;95520.34;;;30.76;27.90
40946;BME280;55635;50.264;11.918;2023-06-14T11:43:19;95520.06;;;31.83;28.07
40946;BME280;55635;50.264;11.918;2023-06-14T11:46:01;95515.88;;;30.89;29.20
40946;BME280;55635;50.264;11.918;2023-06-14T11:48:42;95520.22;;;30.51;28.70
40946;BME280;55635;50.264;11.918;2023-06-14T11:51:24;95518.28;;;30.51;28.85
40946;BME280;55635;50.264;11.918;2023-06-14T11:54:06;95516.31;;;30.21;29.75
40946;BME280;55635;50.264;11.918;2023-06-14T11:56:48;95506.84;;;29.69;29.59
40946;BME280;55635;50.264;11.918;2023-06-14T11:59:30;95516.09;;;29.18;29.24
40946;BME280;55635;50.264;11.918;2023-06-14T12:02:16;95505.09;;;29.10;30.45
40946;BME280;55635;50.264;11.918;2023-06-14T12:05:05;95499.91;;;28.81;30.39
40946;BME280;55635;50.264;11.918;2023-06-14T12:08:02;95506.91;;;28.28;30.92
40946;BME280;55635;50.264;11.918;2023-06-14T12:10:43;95510.25;;;28.38;31.25
40946;BME280;55635;50.264;11.918;2023-06-14T12:13:25;95512.19;;;28.51;31.71
40946;BME280;55635;50.264;11.918;2023-06-14T12:16:09;95525.13;;;28.59;31.73
40946;BME280;55635;50.264;11.918;2023-06-14T12:18:53;95509.38;;;27.92;31.67
40946;BME280;55635;50.264;11.918;2023-06-14T12:21:34;95517.53;;;28.10;31.27
40946;BME280;55635;50.264;11.918;2023-06-14T12:24:16;95523.47;;;28.31;31.87
40946;BME280;55635;50.264;11.918;2023-06-14T12:26:58;95509.03;;;28.31;30.69
40946;BME280;55635;50.264;11.918;2023-06-14T12:29:44;95504.50;;;28.53;31.24
40946;BME280;55635;50.264;11.918;2023-06-14T12:32:25;95514.28;;;28.41;31.28
40946;BME280;55635;50.264;11.918;2023-06-14T12:35:06;95505.91;;;29.74;30.13
40946;BME280;55635;50.264;11.918;2023-06-14T12:37:47;95505.06;;;29.51;29.63
40946;BME280;55635;50.264;11.918;2023-06-14T12:40:28;95503.56;;;28.77;29.14
40946;BME280;55635;50.264;11.918;2023-06-14T12:43:09;95513.00;;;28.06;31.13
40946;BME280;55635;50.264;11.918;2023-06-14T12:45:53;95506.03;;;28.14;30.77
40946;BME280;55635;50.264;11.918;2023-06-14T12:48:34;95507.69;;;27.77;31.37
40946;BME280;55635;50.264;11.918;2023-06-14T12:51:15;95520.06;;;27.70;31.79
40946;BME280;55635;50.264;11.918;2023-06-14T12:53:56;95510.13;;;27.60;31.77
40946;BME280;55635;50.264;11.918;2023-06-14T12:56:37;95517.84;;;27.72;30.87
40946;BME280;55635;50.264;11.918;2023-06-14T12:59:18;95516.84;;;27.49;30.88
40946;BME280;55635;50.264;11.918;2023-06-14T13:02:17;95511.53;;;28.87;30.21
40946;BME280;55635;50.264;11.918;2023-06-14T13:04:58;95507.94;;;30.04;28.76
40946;BME280;55635;50.264;11.918;2023-06-14T13:07:39;95510.19;;;29.66;28.98
40946;BME280;55635;50.264;11.918;2023-06-14T13:10:20;95507.00;;;29.09;29.50
40946;BME280;55635;50.264;11.918;2023-06-14T13:13:01;95507.53;;;29.25;30.21
40946;BME280;55635;50.264;11.918;2023-06-14T13:15:43;95519.19;;;28.57;29.99
40946;BME280;55635;50.264;11.918;2023-06-14T13:18:26;95515.97;;;28.23;29.96
40946;BME280;55635;50.264;11.918;2023-06-14T13:21:07;95522.34;;;28.32;30.17
40946;BME280;55635;50.264;11.918;2023-06-14T13:23:49;95521.38;;;28.74;29.59
40946;BME280;55635;50.264;11.918;2023-06-14T13:26:30;95508.84;;;29.00;29.20
40946;BME280;55635;50.264;11.918;2023-06-14T13:29:11;95510.75;;;29.77;29.38
40946;BME280;55635;50.264;11.918;2023-06-14T13:31:52;95516.50;;;29.39;27.93
40946;BME280;55635;50.264;11.918;2023-06-14T13:34:33;95529.00;;;29.67;28.53
40946;BME280;55635;50.264;11.918;2023-06-14T13:37:14;95521.59;;;29.05;29.80
40946;BME280;55635;50.264;11.918;2023-06-14T13:39:55;95521.38;;;28.09;29.65
40946;BME280;55635;50.264;11.918;2023-06-14T13:42:36;95521.34;;;27.35;31.20
40946;BME280;55635;50.264;11.918;2023-06-14T13:45:20;95529.81;;;27.33;31.88
40946;BME280;55635;50.264;11.918;2023-06-14T13:48:01;95535.47;;;27.61;32.24
40946;BME280;55635;50.264;11.918;2023-06-14T13:50:42;95528.00;;;27.47;31.98
40946;BME280;55635;50.264;11.918;2023-06-14T13:53:23;95535.84;;;27.73;31.77
40946;BME280;55635;50.264;11.918;2023-06-14T13:56:04;95521.22;;;28.66;30.91
40946;BME280;55635;50.264;11.918;2023-06-14T13:58:45;95512.38;;;28.87;29.98
40946;BME280;55635;50.264;11.918;2023-06-14T14:01:26;95492.06;;;28.80;30.18
40946;BME280;55635;50.264;11.918;2023-06-14T14:04:09;95516.81;;;29.10;29.65
40946;BME280;55635;50.264;11.918;2023-06-14T14:06:50;95514.19;;;29.19;30.31
40946;BME280;55635;50.264;11.918;2023-06-14T14:09:31;95513.03;;;29.61;29.26
40946;BME280;55635;50.264;11.918;2023-06-14T14:12:12;95512.72;;;29.62;28.40
40946;BME280;55635;50.264;11.918;2023-06-14T14:14:54;95517.00;;;29.91;28.68
40946;BME280;55635;50.264;11.918;2023-06-14T14:17:35;95486.19;;;30.43;27.57
40946;BME280;55635;50.264;11.918;2023-06-14T14:20:17;95513.44;;;30.48;28.35